createdAt,value
2019-03-13T00:00:11.965Z,0.00
2019-03-13T00:01:11.971Z,0.00
2019-03-13T00:02:11.966Z,0.00
2019-03-13T00:03:11.943Z,0.00
2019-03-13T00:04:11.945Z,0.00
2019-03-13T00:05:13.740Z,0.00
2019-03-13T00:06:11.965Z,0.00
2019-03-13T00:07:11.914Z,0.00
2019-03-13T00:08:11.917Z,0.00
2019-03-13T00:09:11.925Z,0.00
2019-03-13T00:10:11.962Z,0.00
2019-03-13T00:11:13.767Z,0.00
2019-03-13T00:12:11.899Z,0.00
2019-03-13T00:13:11.890Z,0.00
2019-03-13T00:14:11.887Z,0.00
2019-03-13T00:15:11.870Z,0.00
2019-03-13T00:16:11.875Z,0.00
2019-03-13T00:17:15.166Z,0.00
2019-03-13T00:18:11.871Z,0.00
2019-03-13T00:19:11.849Z,0.00
2019-03-13T00:20:11.853Z,0.00
2019-03-13T00:21:11.828Z,0.00
2019-03-13T00:22:11.846Z,0.00
2019-03-13T00:23:15.184Z,0.00
2019-03-13T00:24:11.819Z,0.00
2019-03-13T00:25:11.801Z,0.00
2019-03-13T00:26:11.804Z,0.00
2019-03-13T00:27:11.846Z,0.00
2019-03-13T00:28:11.796Z,0.00
2019-03-13T00:29:12.090Z,0.00
2019-03-13T00:30:11.829Z,0.00
2019-03-13T00:31:11.781Z,0.00
2019-03-13T00:32:11.768Z,0.00
2019-03-13T00:33:11.782Z,0.00
2019-03-13T00:34:11.743Z,0.00
2019-03-13T00:35:12.107Z,0.00
2019-03-13T00:36:11.741Z,0.00
2019-03-13T00:37:11.741Z,0.00
2019-03-13T00:38:11.745Z,0.00
2019-03-13T00:39:11.747Z,0.00
2019-03-13T00:40:11.728Z,0.00
2019-03-13T00:41:13.582Z,0.00
2019-03-13T00:42:11.728Z,0.00
2019-03-13T00:43:11.708Z,0.00
2019-03-13T00:44:11.738Z,0.00
2019-03-13T00:45:11.698Z,0.00
2019-03-13T00:46:11.696Z,0.00
2019-03-13T00:47:12.283Z,0.00
2019-03-13T00:48:11.674Z,0.00
2019-03-13T00:49:11.661Z,0.00
2019-03-13T00:50:11.661Z,0.00
2019-03-13T00:51:11.671Z,0.00
2019-03-13T00:52:11.666Z,0.00
2019-03-13T00:53:13.410Z,0.00
2019-03-13T00:54:11.661Z,0.00
2019-03-13T00:55:11.654Z,0.00
2019-03-13T00:56:11.638Z,0.00
2019-03-13T00:57:11.639Z,0.00
2019-03-13T00:58:11.636Z,0.00
2019-03-13T00:59:15.113Z,0.00
2019-03-13T01:00:11.615Z,0.00
2019-03-13T01:01:11.620Z,0.00
2019-03-13T01:02:11.594Z,0.00
2019-03-13T01:03:11.593Z,0.00
2019-03-13T01:04:11.601Z,0.00
2019-03-13T01:05:11.851Z,0.00
2019-03-13T01:06:11.562Z,0.00
2019-03-13T01:07:11.574Z,0.00
2019-03-13T01:08:11.554Z,0.00
2019-03-13T01:09:11.543Z,0.00
2019-03-13T01:10:11.561Z,0.00
2019-03-13T01:11:13.347Z,0.00
2019-03-13T01:12:11.553Z,0.00
2019-03-13T01:13:11.540Z,0.00
2019-03-13T01:14:11.543Z,0.00
2019-03-13T01:15:11.531Z,0.00
2019-03-13T01:16:11.527Z,0.00
2019-03-13T01:17:14.926Z,0.00
2019-03-13T01:18:11.512Z,0.00
2019-03-13T01:19:11.486Z,0.00
2019-03-13T01:20:11.502Z,0.00
2019-03-13T01:21:11.498Z,0.00
2019-03-13T01:22:11.488Z,0.00
2019-03-13T01:23:13.295Z,0.00
2019-03-13T01:24:11.474Z,0.00
2019-03-13T01:25:11.481Z,0.00
2019-03-13T01:26:11.489Z,0.00
2019-03-13T01:27:11.462Z,0.00
2019-03-13T01:28:11.438Z,0.00
2019-03-13T01:29:13.297Z,0.00
2019-03-13T01:30:11.446Z,0.00
2019-03-13T01:31:11.436Z,0.00
2019-03-13T01:32:11.424Z,0.00
2019-03-13T01:33:11.417Z,0.00
2019-03-13T01:34:11.434Z,0.00
2019-03-13T01:35:13.192Z,0.00
2019-03-13T01:36:11.411Z,0.00
2019-03-13T01:37:11.573Z,0.00
2019-03-13T01:38:11.394Z,0.00
2019-03-13T01:39:11.424Z,0.00
2019-03-13T01:40:11.367Z,0.00
2019-03-13T01:41:14.645Z,0.00
2019-03-13T01:42:11.380Z,0.00
2019-03-13T01:43:11.370Z,0.00
2019-03-13T01:44:11.344Z,0.00
2019-03-13T01:45:11.344Z,0.00
2019-03-13T01:46:11.353Z,0.00
2019-03-13T01:47:13.347Z,0.00
2019-03-13T01:48:11.330Z,0.00
2019-03-13T01:49:11.329Z,0.00
2019-03-13T01:50:11.322Z,0.00
2019-03-13T01:51:11.312Z,0.00
2019-03-13T01:52:11.289Z,0.00
2019-03-13T01:53:11.655Z,0.00
2019-03-13T01:54:11.276Z,0.00
2019-03-13T01:55:11.299Z,0.00
2019-03-13T01:56:11.266Z,0.00
2019-03-13T01:57:11.283Z,0.00
2019-03-13T01:58:13.039Z,0.00
2019-03-13T01:59:11.271Z,0.00
2019-03-13T02:00:11.271Z,0.00
2019-03-13T02:01:11.262Z,0.00
2019-03-13T02:02:11.254Z,0.00
2019-03-13T02:03:11.247Z,0.00
2019-03-13T02:04:13.098Z,0.00
2019-03-13T02:05:11.229Z,0.00
2019-03-13T02:06:11.215Z,0.00
2019-03-13T02:07:11.233Z,0.00
2019-03-13T02:08:11.246Z,0.00
2019-03-13T02:09:11.208Z,0.00
2019-03-13T02:10:13.269Z,0.00
2019-03-13T02:11:11.173Z,0.00
2019-03-13T02:12:11.195Z,0.00
2019-03-13T02:13:11.169Z,0.00
2019-03-13T02:14:11.182Z,0.00
2019-03-13T02:15:11.176Z,0.00
2019-03-13T02:16:11.410Z,0.00
2019-03-13T02:17:11.158Z,0.00
2019-03-13T02:18:11.147Z,0.00
2019-03-13T02:19:11.139Z,0.00
2019-03-13T02:20:11.144Z,0.00
2019-03-13T02:21:12.903Z,0.00
2019-03-13T02:22:11.175Z,0.00
2019-03-13T02:23:11.136Z,0.00
2019-03-13T02:24:11.103Z,0.00
2019-03-13T02:25:11.147Z,0.00
2019-03-13T02:26:11.148Z,0.00
2019-03-13T02:27:14.399Z,0.00
2019-03-13T02:28:11.075Z,0.00
2019-03-13T02:29:11.100Z,0.00
2019-03-13T02:30:11.085Z,0.00
2019-03-13T02:31:11.113Z,0.00
2019-03-13T02:32:11.071Z,0.00
2019-03-13T02:33:11.313Z,0.00
2019-03-13T02:34:11.075Z,0.00
2019-03-13T02:35:11.052Z,0.00
2019-03-13T02:36:11.060Z,0.00
2019-03-13T02:37:11.037Z,0.00
2019-03-13T02:38:11.439Z,0.00
2019-03-13T02:39:11.027Z,0.00
2019-03-13T02:40:11.049Z,0.00
2019-03-13T02:41:11.023Z,0.00
2019-03-13T02:42:11.019Z,0.00
2019-03-13T02:43:12.745Z,0.00
2019-03-13T02:44:11.011Z,0.00
2019-03-13T02:45:11.049Z,0.00
2019-03-13T02:46:10.974Z,0.00
2019-03-13T02:47:10.987Z,0.00
2019-03-13T02:48:10.985Z,0.00
2019-03-13T02:49:14.284Z,0.00
2019-03-13T02:50:10.975Z,0.00
2019-03-13T02:51:10.970Z,0.00
2019-03-13T02:52:10.947Z,0.00
2019-03-13T02:53:10.957Z,0.00
2019-03-13T02:54:10.955Z,0.00
2019-03-13T02:55:12.702Z,0.00
2019-03-13T02:56:10.939Z,0.00
2019-03-13T02:57:10.997Z,0.00
2019-03-13T02:58:11.014Z,0.00
2019-03-13T02:59:10.895Z,0.00
2019-03-13T03:00:10.926Z,0.00
2019-03-13T03:01:12.791Z,0.00
2019-03-13T03:02:10.899Z,0.00
2019-03-13T03:03:10.892Z,0.00
2019-03-13T03:04:10.932Z,0.00
2019-03-13T03:05:10.904Z,0.00
2019-03-13T03:06:10.934Z,0.00
2019-03-13T03:07:13.003Z,0.00
2019-03-13T03:08:10.883Z,0.00
2019-03-13T03:09:10.854Z,0.00
2019-03-13T03:10:10.849Z,0.00
2019-03-13T03:11:10.836Z,0.00
2019-03-13T03:12:10.832Z,0.00
2019-03-13T03:13:12.630Z,0.00
2019-03-13T03:14:10.832Z,0.00
2019-03-13T03:15:10.827Z,0.00
2019-03-13T03:16:10.824Z,0.00
2019-03-13T03:17:10.856Z,0.00
2019-03-13T03:18:10.795Z,0.00
2019-03-13T03:19:10.896Z,0.00
2019-03-13T03:20:10.788Z,0.00
2019-03-13T03:21:10.794Z,0.00
2019-03-13T03:22:10.767Z,0.00
2019-03-13T03:23:10.787Z,0.00
2019-03-13T03:24:11.087Z,0.00
2019-03-13T03:25:10.769Z,0.00
2019-03-13T03:26:10.757Z,0.00
2019-03-13T03:27:10.749Z,0.00
2019-03-13T03:28:10.738Z,0.00
2019-03-13T03:29:10.724Z,0.00
2019-03-13T03:30:12.627Z,0.00
2019-03-13T03:31:10.768Z,0.00
2019-03-13T03:32:10.750Z,0.00
2019-03-13T03:33:10.743Z,0.00
2019-03-13T03:34:10.702Z,0.00
2019-03-13T03:35:10.719Z,0.00
2019-03-13T03:36:10.793Z,0.00
2019-03-13T03:37:10.691Z,0.00
2019-03-13T03:38:10.689Z,0.00
2019-03-13T03:39:10.693Z,0.00
2019-03-13T03:40:10.690Z,0.00
2019-03-13T03:41:11.145Z,0.00
2019-03-13T03:42:10.656Z,0.00
2019-03-13T03:43:10.648Z,0.00
2019-03-13T03:44:10.662Z,0.00
2019-03-13T03:45:10.671Z,0.00
2019-03-13T03:46:10.660Z,0.00
2019-03-13T03:47:13.972Z,0.00
2019-03-13T03:48:10.635Z,0.00
2019-03-13T03:49:10.612Z,0.00
2019-03-13T03:50:10.644Z,0.00
2019-03-13T03:51:10.622Z,0.00
2019-03-13T03:52:10.616Z,0.00
2019-03-13T03:53:10.693Z,0.00
2019-03-13T03:54:10.603Z,0.00
2019-03-13T03:55:10.636Z,0.00
2019-03-13T03:56:10.585Z,0.00
2019-03-13T03:57:10.636Z,0.00
2019-03-13T03:58:10.918Z,0.00
2019-03-13T03:59:10.582Z,0.00
2019-03-13T04:00:10.600Z,0.00
2019-03-13T04:01:10.565Z,0.00
2019-03-13T04:02:10.542Z,0.00
2019-03-13T04:03:12.400Z,0.00
2019-03-13T04:04:10.541Z,0.00
2019-03-13T04:05:10.518Z,0.00
2019-03-13T04:06:10.518Z,0.00
2019-03-13T04:07:10.526Z,0.00
2019-03-13T04:08:10.494Z,0.00
2019-03-13T04:09:10.590Z,0.00
2019-03-13T04:10:10.539Z,0.00
2019-03-13T04:11:10.491Z,0.00
2019-03-13T04:12:10.478Z,0.00
2019-03-13T04:13:10.483Z,0.00
2019-03-13T04:14:12.460Z,0.00
2019-03-13T04:15:10.481Z,0.00
2019-03-13T04:16:10.471Z,0.00
2019-03-13T04:17:10.459Z,0.00
2019-03-13T04:18:10.458Z,0.00
2019-03-13T04:19:10.433Z,0.00
2019-03-13T04:20:10.794Z,0.00
2019-03-13T04:21:10.448Z,0.00
2019-03-13T04:22:10.425Z,0.00
2019-03-13T04:23:10.417Z,0.00
2019-03-13T04:24:10.446Z,0.00
2019-03-13T04:25:12.258Z,0.00
2019-03-13T04:26:12.727Z,0.00
2019-03-13T04:27:10.404Z,0.00
2019-03-13T04:28:10.394Z,0.00
2019-03-13T04:29:10.373Z,0.00
2019-03-13T04:30:10.382Z,0.00
2019-03-13T04:31:12.172Z,0.00
2019-03-13T04:32:10.346Z,0.00
2019-03-13T04:33:10.356Z,0.00
2019-03-13T04:34:10.355Z,0.00
2019-03-13T04:35:10.344Z,0.00
2019-03-13T04:36:10.328Z,0.00
2019-03-13T04:37:10.828Z,0.00
2019-03-13T04:38:10.321Z,0.00
2019-03-13T04:39:10.326Z,0.00
2019-03-13T04:40:10.325Z,0.00
2019-03-13T04:41:10.331Z,0.00
2019-03-13T04:42:12.221Z,0.00
2019-03-13T04:43:10.311Z,0.00
2019-03-13T04:44:10.284Z,0.00
2019-03-13T04:45:10.266Z,0.00
2019-03-13T04:46:10.286Z,0.00
2019-03-13T04:47:10.367Z,0.00
2019-03-13T04:48:12.122Z,0.00
2019-03-13T04:49:10.273Z,0.00
2019-03-13T04:50:10.261Z,0.00
2019-03-13T04:51:10.223Z,0.00
2019-03-13T04:52:10.274Z,0.00
2019-03-13T04:53:10.231Z,0.00
2019-03-13T04:54:12.035Z,0.00
2019-03-13T04:55:10.264Z,0.00
2019-03-13T04:56:10.235Z,0.00
2019-03-13T04:57:10.245Z,0.00
2019-03-13T04:58:10.250Z,0.00
2019-03-13T04:59:10.199Z,0.00
2019-03-13T05:00:10.440Z,0.00
2019-03-13T05:01:10.183Z,0.00
2019-03-13T05:02:10.230Z,0.00
2019-03-13T05:03:10.171Z,0.00
2019-03-13T05:04:10.176Z,0.00
2019-03-13T05:05:10.139Z,0.00
2019-03-13T05:06:10.563Z,0.00
2019-03-13T05:07:10.138Z,0.00
2019-03-13T05:08:10.134Z,0.00
2019-03-13T05:09:10.114Z,0.00
2019-03-13T05:10:10.115Z,0.00
2019-03-13T05:11:10.120Z,0.00
2019-03-13T05:12:10.369Z,0.00
2019-03-13T05:13:10.211Z,0.00
2019-03-13T05:14:10.101Z,0.00
2019-03-13T05:15:10.076Z,0.00
2019-03-13T05:16:10.193Z,0.00
2019-03-13T05:17:10.081Z,0.00
2019-03-13T05:18:12.030Z,0.00
2019-03-13T05:19:10.077Z,0.00
2019-03-13T05:20:10.062Z,0.00
2019-03-13T05:21:10.060Z,0.00
2019-03-13T05:22:10.086Z,0.00
2019-03-13T05:23:10.054Z,0.00
2019-03-13T05:24:10.393Z,0.00
2019-03-13T05:25:10.030Z,0.00
2019-03-13T05:26:10.044Z,0.00
2019-03-13T05:27:10.031Z,0.00
2019-03-13T05:28:10.014Z,0.00
2019-03-13T05:29:09.998Z,0.00
2019-03-13T05:30:10.351Z,0.00
2019-03-13T05:31:09.991Z,0.00
2019-03-13T05:32:09.992Z,0.00
2019-03-13T05:33:09.975Z,0.00
2019-03-13T05:34:09.972Z,0.00
2019-03-13T05:35:09.966Z,0.00
2019-03-13T05:36:10.201Z,0.00
2019-03-13T05:37:09.979Z,0.00
2019-03-13T05:38:09.924Z,0.00
2019-03-13T05:39:09.952Z,0.00
2019-03-13T05:40:09.980Z,0.00
2019-03-13T05:41:09.935Z,0.00
2019-03-13T05:42:10.313Z,0.00
2019-03-13T05:43:09.916Z,0.00
2019-03-13T05:44:09.898Z,0.00
2019-03-13T05:45:09.914Z,0.00
2019-03-13T05:46:09.905Z,0.00
2019-03-13T05:47:09.895Z,0.00
2019-03-13T05:48:11.843Z,0.00
2019-03-13T05:49:09.861Z,0.00
2019-03-13T05:50:09.887Z,0.00
2019-03-13T05:51:09.903Z,0.00
2019-03-13T05:52:09.855Z,0.00
2019-03-13T05:53:09.830Z,0.00
2019-03-13T05:54:10.142Z,0.00
2019-03-13T05:55:09.849Z,0.00
2019-03-13T05:56:09.836Z,0.00
2019-03-13T05:57:09.802Z,0.00
2019-03-13T05:58:09.819Z,0.00
2019-03-13T05:59:09.812Z,0.00
2019-03-13T06:00:11.658Z,0.00
2019-03-13T06:01:09.799Z,0.00
2019-03-13T06:02:09.790Z,0.00
2019-03-13T06:03:09.803Z,0.00
2019-03-13T06:04:09.792Z,0.00
2019-03-13T06:05:09.782Z,0.00
2019-03-13T06:06:11.570Z,0.00
2019-03-13T06:07:09.765Z,0.00
2019-03-13T06:08:09.765Z,0.00
2019-03-13T06:09:09.758Z,0.00
2019-03-13T06:10:09.786Z,0.00
2019-03-13T06:11:09.735Z,0.00
2019-03-13T06:12:10.129Z,0.00
2019-03-13T06:13:09.713Z,0.00
2019-03-13T06:14:09.704Z,0.00
2019-03-13T06:15:09.739Z,0.00
2019-03-13T06:16:09.714Z,0.00
2019-03-13T06:17:09.679Z,0.00
2019-03-13T06:18:11.601Z,0.00
2019-03-13T06:19:09.767Z,0.00
2019-03-13T06:20:10.704Z,0.00
2019-03-13T06:21:09.675Z,0.00
2019-03-13T06:22:09.675Z,0.00
2019-03-13T06:23:09.669Z,0.00
2019-03-13T06:24:10.153Z,0.00
2019-03-13T06:25:09.644Z,0.00
2019-03-13T06:26:09.695Z,0.00
2019-03-13T06:27:09.638Z,0.00
2019-03-13T06:28:09.635Z,0.00
2019-03-13T06:29:09.658Z,0.00
2019-03-13T06:30:09.865Z,0.00
2019-03-13T06:31:09.603Z,0.00
2019-03-13T06:32:09.583Z,0.00
2019-03-13T06:33:09.595Z,0.00
2019-03-13T06:34:11.437Z,0.00
2019-03-13T06:35:09.837Z,0.00
2019-03-13T06:36:09.570Z,0.00
2019-03-13T06:37:09.569Z,0.00
2019-03-13T06:38:09.566Z,0.00
2019-03-13T06:39:09.548Z,0.00
2019-03-13T06:40:09.929Z,0.00
2019-03-13T06:41:09.543Z,0.00
2019-03-13T06:42:09.548Z,0.00
2019-03-13T06:43:09.533Z,0.00
2019-03-13T06:44:09.531Z,0.00
2019-03-13T06:45:12.983Z,0.00
2019-03-13T06:46:09.528Z,0.00
2019-03-13T06:47:09.484Z,0.00
2019-03-13T06:48:09.494Z,0.00
2019-03-13T06:49:09.505Z,0.00
2019-03-13T06:50:09.499Z,0.00
2019-03-13T06:51:09.634Z,0.00
2019-03-13T06:52:09.478Z,0.00
2019-03-13T06:53:09.483Z,0.00
2019-03-13T06:54:09.456Z,0.00
2019-03-13T06:55:09.438Z,0.00
2019-03-13T06:56:09.742Z,0.00
2019-03-13T06:57:09.437Z,0.00
2019-03-13T06:58:09.439Z,0.00
2019-03-13T06:59:09.419Z,0.00
2019-03-13T07:00:09.413Z,0.00
2019-03-13T07:01:09.414Z,0.00
2019-03-13T07:02:09.641Z,0.00
2019-03-13T07:03:09.423Z,0.00
2019-03-13T07:04:09.395Z,0.00
2019-03-13T07:05:09.389Z,0.00
2019-03-13T07:06:09.416Z,0.00
2019-03-13T07:07:09.410Z,0.00
2019-03-13T07:08:11.270Z,0.00
2019-03-13T07:09:09.374Z,0.00
2019-03-13T07:10:09.366Z,0.00
2019-03-13T07:11:09.389Z,0.00
2019-03-13T07:12:09.339Z,0.00
2019-03-13T07:13:09.336Z,0.00
2019-03-13T07:14:09.720Z,0.00
2019-03-13T07:15:09.302Z,0.00
2019-03-13T07:16:09.323Z,0.00
2019-03-13T07:17:09.294Z,0.00
2019-03-13T07:18:09.319Z,0.00
2019-03-13T07:19:09.299Z,0.00
2019-03-13T07:20:12.607Z,0.00
2019-03-13T07:21:09.299Z,0.00
2019-03-13T07:22:09.311Z,0.00
2019-03-13T07:23:09.283Z,0.00
2019-03-13T07:24:09.256Z,0.00
2019-03-13T07:25:09.270Z,0.00
2019-03-13T07:26:09.647Z,0.00
2019-03-13T07:27:09.258Z,0.00
2019-03-13T07:28:09.235Z,0.00
2019-03-13T07:29:12.398Z,0.00
2019-03-13T07:30:09.428Z,0.00
2019-03-13T07:31:09.216Z,0.00
2019-03-13T07:32:09.836Z,0.00
2019-03-13T07:33:10.434Z,0.00
2019-03-13T07:34:09.207Z,0.00
2019-03-13T07:35:09.206Z,0.00
2019-03-13T07:36:09.205Z,0.00
2019-03-13T07:37:09.185Z,0.00
2019-03-13T07:38:11.025Z,0.00
2019-03-13T07:39:09.212Z,0.00
2019-03-13T07:40:09.167Z,0.00
2019-03-13T07:41:09.154Z,0.00
2019-03-13T07:42:09.191Z,0.00
2019-03-13T07:43:09.183Z,0.00
2019-03-13T07:44:09.365Z,0.00
2019-03-13T07:45:09.167Z,0.00
2019-03-13T07:46:09.129Z,0.00
2019-03-13T07:47:09.120Z,0.00
2019-03-13T07:48:09.088Z,0.00
2019-03-13T07:49:10.852Z,0.00
2019-03-13T07:50:09.129Z,0.00
2019-03-13T07:51:09.123Z,0.00
2019-03-13T07:52:09.122Z,0.00
2019-03-13T07:53:09.114Z,0.00
2019-03-13T07:54:09.114Z,0.00
2019-03-13T07:55:09.402Z,0.00
2019-03-13T07:56:09.065Z,0.00
2019-03-13T07:57:09.058Z,0.00
2019-03-13T07:58:09.031Z,0.00
2019-03-13T07:59:09.040Z,0.00
2019-03-13T08:00:09.061Z,0.00
2019-03-13T08:01:09.463Z,0.00
2019-03-13T08:02:09.017Z,0.00
2019-03-13T08:03:08.998Z,0.00
2019-03-13T08:04:09.036Z,0.00
2019-03-13T08:05:09.031Z,0.00
2019-03-13T08:06:08.991Z,0.00
2019-03-13T08:07:09.199Z,0.00
2019-03-13T08:08:08.965Z,0.00
2019-03-13T08:09:08.954Z,0.00
2019-03-13T08:10:08.951Z,0.00
2019-03-13T08:11:08.930Z,0.00
2019-03-13T08:12:08.935Z,0.00
2019-03-13T08:13:09.174Z,0.00
2019-03-13T08:14:08.920Z,0.00
2019-03-13T08:15:08.951Z,0.00
2019-03-13T08:16:08.888Z,0.00
2019-03-13T08:17:08.915Z,0.00
2019-03-13T08:18:08.906Z,0.00
2019-03-13T08:19:10.794Z,0.00
2019-03-13T08:20:08.889Z,0.00
2019-03-13T08:21:08.916Z,0.00
2019-03-13T08:22:08.872Z,0.00
2019-03-13T08:23:08.866Z,0.00
2019-03-13T08:24:08.861Z,0.00
2019-03-13T08:25:09.097Z,0.00
2019-03-13T08:26:08.846Z,0.00
2019-03-13T08:27:08.847Z,0.00
2019-03-13T08:28:08.811Z,0.00
2019-03-13T08:29:08.929Z,0.00
2019-03-13T08:30:08.858Z,0.00
2019-03-13T08:31:09.097Z,0.00
2019-03-13T08:32:08.817Z,0.00
2019-03-13T08:33:08.786Z,0.00
2019-03-13T08:34:08.785Z,0.00
2019-03-13T08:35:08.789Z,0.00
2019-03-13T08:36:09.171Z,0.00
2019-03-13T08:37:08.749Z,0.00
2019-03-13T08:38:08.769Z,0.00
2019-03-13T08:39:08.729Z,0.00
2019-03-13T08:40:08.743Z,0.00
2019-03-13T08:41:08.736Z,0.00
2019-03-13T08:42:09.054Z,0.00
2019-03-13T08:43:08.734Z,0.00
2019-03-13T08:44:08.706Z,0.00
2019-03-13T08:45:08.692Z,0.00
2019-03-13T08:46:08.712Z,0.00
2019-03-13T08:47:12.497Z,0.00
2019-03-13T08:48:08.682Z,0.00
2019-03-13T08:49:08.686Z,0.00
2019-03-13T08:50:08.664Z,0.00
2019-03-13T08:51:08.665Z,0.00
2019-03-13T08:52:08.645Z,0.00
2019-03-13T08:53:08.902Z,0.00
2019-03-13T08:54:08.659Z,0.00
2019-03-13T08:55:08.651Z,0.00
2019-03-13T08:56:08.638Z,0.00
2019-03-13T08:57:08.621Z,0.00
2019-03-13T08:58:08.630Z,0.00
2019-03-13T08:59:09.057Z,0.00
2019-03-13T09:00:08.615Z,0.00
2019-03-13T09:01:08.585Z,0.00
2019-03-13T09:02:08.598Z,0.00
2019-03-13T09:03:08.594Z,0.00
2019-03-13T09:04:08.558Z,0.00
2019-03-13T09:05:10.425Z,0.00
2019-03-13T09:06:08.645Z,0.00
2019-03-13T09:07:08.568Z,0.00
2019-03-13T09:08:08.561Z,0.00
2019-03-13T09:09:08.541Z,0.00
2019-03-13T09:10:08.533Z,0.00
2019-03-13T09:11:08.870Z,0.00
2019-03-13T09:12:08.521Z,0.00
2019-03-13T09:13:08.520Z,0.00
2019-03-13T09:14:08.508Z,0.00
2019-03-13T09:15:08.503Z,0.00
2019-03-13T09:16:08.493Z,0.00
2019-03-13T09:17:11.938Z,0.00
2019-03-13T09:18:08.466Z,0.00
2019-03-13T09:19:08.461Z,0.00
2019-03-13T09:20:08.440Z,0.00
2019-03-13T09:21:08.459Z,0.00
2019-03-13T09:22:08.433Z,0.00
2019-03-13T09:23:08.837Z,0.00
2019-03-13T09:24:08.416Z,0.00
2019-03-13T09:25:12.250Z,0.00
2019-03-13T09:26:08.402Z,0.00
2019-03-13T09:27:08.405Z,0.00
2019-03-13T09:28:08.438Z,0.00
2019-03-13T09:29:08.651Z,0.00
2019-03-13T09:30:08.416Z,0.00
2019-03-13T09:31:08.378Z,0.00
2019-03-13T09:32:08.393Z,0.00
2019-03-13T09:33:08.364Z,0.00
2019-03-13T09:34:08.892Z,0.00
2019-03-13T09:35:08.393Z,0.00
2019-03-13T09:36:08.342Z,0.00
2019-03-13T09:37:08.319Z,0.00
2019-03-13T09:38:08.380Z,0.00
2019-03-13T09:39:09.589Z,0.00
2019-03-13T09:40:10.129Z,0.00
2019-03-13T09:41:08.304Z,0.00
2019-03-13T09:42:08.307Z,0.00
2019-03-13T09:43:08.299Z,0.00
2019-03-13T09:44:08.298Z,0.00
2019-03-13T09:45:08.279Z,0.00
2019-03-13T09:46:10.276Z,0.00
2019-03-13T09:47:08.270Z,0.00
2019-03-13T09:48:08.286Z,0.00
2019-03-13T09:49:08.289Z,0.00
2019-03-13T09:50:08.288Z,0.00
2019-03-13T09:51:08.239Z,0.00
2019-03-13T09:52:10.120Z,0.00
2019-03-13T09:53:08.212Z,0.00
2019-03-13T09:54:08.254Z,0.00
2019-03-13T09:55:08.183Z,0.00
2019-03-13T09:56:08.188Z,0.00
2019-03-13T09:57:08.196Z,0.00
2019-03-13T09:58:08.468Z,0.00
2019-03-13T09:59:08.217Z,0.00
2019-03-13T10:00:08.216Z,0.00
2019-03-13T10:01:08.148Z,0.00
2019-03-13T10:02:08.149Z,0.00
2019-03-13T10:03:08.499Z,5.63
2019-03-13T10:04:08.153Z,5.63
2019-03-13T10:05:08.147Z,5.63
2019-03-13T10:06:08.114Z,5.63
2019-03-13T10:07:08.110Z,5.63
2019-03-13T10:08:08.153Z,5.63
2019-03-13T10:09:08.589Z,5.63
2019-03-13T10:10:08.096Z,5.63
2019-03-13T10:11:08.069Z,5.63
2019-03-13T10:12:08.084Z,5.63
2019-03-13T10:13:08.057Z,5.63
2019-03-13T10:14:08.071Z,5.63
2019-03-13T10:15:09.879Z,5.63
2019-03-13T10:16:08.067Z,5.63
2019-03-13T10:17:10.919Z,5.63
2019-03-13T10:18:08.021Z,5.63
2019-03-13T10:19:08.036Z,11.25
2019-03-13T10:20:08.026Z,11.25
2019-03-13T10:21:09.863Z,11.25
2019-03-13T10:22:08.011Z,11.25
2019-03-13T10:23:07.997Z,11.25
2019-03-13T10:24:07.991Z,11.25
2019-03-13T10:25:18.401Z,11.25
2019-03-13T10:26:14.243Z,11.25
2019-03-13T10:27:08.221Z,16.88
2019-03-13T10:28:07.987Z,16.88
2019-03-13T10:29:07.952Z,16.88
2019-03-13T10:30:07.954Z,16.88
2019-03-13T10:31:07.945Z,16.88
2019-03-13T10:32:07.942Z,16.88
2019-03-13T10:33:08.267Z,16.88
2019-03-13T10:34:07.929Z,16.88
2019-03-13T10:35:07.908Z,16.88
2019-03-13T10:36:07.900Z,16.88
2019-03-13T10:37:07.912Z,16.88
2019-03-13T10:38:13.665Z,16.88
2019-03-13T10:39:09.682Z,16.88
2019-03-13T10:40:07.871Z,16.88
2019-03-13T10:41:07.910Z,16.88
2019-03-13T10:42:07.866Z,22.50
2019-03-13T10:43:07.861Z,22.50
2019-03-13T10:44:07.867Z,22.50
2019-03-13T10:45:08.105Z,22.50
2019-03-13T10:46:07.823Z,22.50
2019-03-13T10:47:07.839Z,22.50
2019-03-13T10:48:07.878Z,22.50
2019-03-13T10:49:07.824Z,22.50
2019-03-13T10:50:07.803Z,22.50
2019-03-13T10:51:08.040Z,22.50
2019-03-13T10:52:07.781Z,22.50
2019-03-13T10:53:07.794Z,22.50
2019-03-13T10:54:07.781Z,28.13
2019-03-13T10:55:07.782Z,28.13
2019-03-13T10:56:07.765Z,28.13
2019-03-13T10:57:09.536Z,28.13
2019-03-13T10:58:07.760Z,28.13
2019-03-13T10:59:07.755Z,28.13
2019-03-13T11:00:07.750Z,28.13
2019-03-13T11:01:07.782Z,28.13
2019-03-13T11:02:07.731Z,28.13
2019-03-13T11:03:09.636Z,28.13
2019-03-13T11:04:07.716Z,28.13
2019-03-13T11:05:07.727Z,28.13
2019-03-13T11:06:07.702Z,28.13
2019-03-13T11:07:07.710Z,28.13
2019-03-13T11:08:07.701Z,28.13
2019-03-13T11:09:11.011Z,28.13
2019-03-13T11:10:07.694Z,28.13
2019-03-13T11:11:07.674Z,28.13
2019-03-13T11:12:07.674Z,28.13
2019-03-13T11:13:07.662Z,28.13
2019-03-13T11:14:15.603Z,28.13
2019-03-13T11:15:09.498Z,28.13
2019-03-13T11:16:07.641Z,28.13
2019-03-13T11:17:07.640Z,28.13
2019-03-13T11:18:07.641Z,28.13
2019-03-13T11:19:07.629Z,28.13
2019-03-13T11:20:07.627Z,28.13
2019-03-13T11:21:07.972Z,28.13
2019-03-13T11:22:07.612Z,28.13
2019-03-13T11:23:07.633Z,28.13
2019-03-13T11:24:07.590Z,28.13
2019-03-13T11:25:07.604Z,28.13
2019-03-13T11:26:08.101Z,28.13
2019-03-13T11:27:07.565Z,22.50
2019-03-13T11:28:07.577Z,22.50
2019-03-13T11:29:07.559Z,28.13
2019-03-13T11:30:07.560Z,22.50
2019-03-13T11:31:09.467Z,22.50
2019-03-13T11:32:07.557Z,22.50
2019-03-13T11:33:07.526Z,22.50
2019-03-13T11:34:07.538Z,22.50
2019-03-13T11:35:07.551Z,22.50
2019-03-13T11:36:07.537Z,22.50
2019-03-13T11:37:07.773Z,22.50
2019-03-13T11:38:07.546Z,22.50
2019-03-13T11:39:07.513Z,22.50
2019-03-13T11:40:07.495Z,22.50
2019-03-13T11:41:07.481Z,22.50
2019-03-13T11:42:07.490Z,22.50
2019-03-13T11:43:07.478Z,22.50
2019-03-13T11:44:07.519Z,22.50
2019-03-13T11:45:07.475Z,22.50
2019-03-13T11:46:07.445Z,22.50
2019-03-13T11:47:07.466Z,28.13
2019-03-13T11:48:07.467Z,28.13
2019-03-13T11:49:07.689Z,22.50
2019-03-13T11:50:07.438Z,16.88
2019-03-13T11:51:07.441Z,16.88
2019-03-13T11:52:07.421Z,16.88
2019-03-13T11:53:07.427Z,16.88
2019-03-13T11:54:07.411Z,16.88
2019-03-13T11:55:07.520Z,16.88
2019-03-13T11:56:07.388Z,11.25
2019-03-13T11:57:07.593Z,11.25
2019-03-13T11:58:09.355Z,16.88
2019-03-13T11:59:07.392Z,16.88
2019-03-13T12:00:07.382Z,22.50
2019-03-13T12:01:07.381Z,22.50
2019-03-13T12:02:07.393Z,16.88
2019-03-13T12:03:07.410Z,16.88
2019-03-13T12:04:07.364Z,22.50
2019-03-13T12:05:07.356Z,22.50
2019-03-13T12:06:07.360Z,16.88
2019-03-13T12:07:07.351Z,16.88
2019-03-13T12:08:07.376Z,16.88
2019-03-13T12:09:07.338Z,16.88
2019-03-13T12:10:07.314Z,28.13
2019-03-13T12:11:07.337Z,22.50
2019-03-13T12:12:07.303Z,22.50
2019-03-13T12:13:10.260Z,22.50
2019-03-13T12:14:07.308Z,22.50
2019-03-13T12:15:07.286Z,22.50
2019-03-13T12:16:07.337Z,28.13
2019-03-13T12:17:07.268Z,22.50
2019-03-13T12:18:07.319Z,22.50
2019-03-13T12:19:07.251Z,22.50
2019-03-13T12:20:07.307Z,22.50
2019-03-13T12:21:07.257Z,22.50
2019-03-13T12:22:07.251Z,22.50
2019-03-13T12:23:07.289Z,22.50
2019-03-13T12:24:07.256Z,22.50
2019-03-13T12:25:07.216Z,22.50
2019-03-13T12:26:07.245Z,22.50
2019-03-13T12:27:07.219Z,22.50
2019-03-13T12:28:07.222Z,28.13
2019-03-13T12:29:07.222Z,28.13
2019-03-13T12:30:07.204Z,22.50
2019-03-13T12:31:07.252Z,28.13
2019-03-13T12:32:07.199Z,39.38
2019-03-13T12:33:07.191Z,28.13
2019-03-13T12:34:07.234Z,39.38
2019-03-13T12:35:07.162Z,22.50
2019-03-13T12:36:07.190Z,22.50
2019-03-13T12:37:07.173Z,22.50
2019-03-13T12:38:07.168Z,28.13
2019-03-13T12:39:07.162Z,50.63
2019-03-13T12:40:07.143Z,56.25
2019-03-13T12:41:07.157Z,56.25
2019-03-13T12:42:07.161Z,56.25
2019-03-13T12:43:07.139Z,56.25
2019-03-13T12:44:07.144Z,56.25
2019-03-13T12:45:07.144Z,56.25
2019-03-13T12:46:07.120Z,61.88
2019-03-13T12:47:07.424Z,61.88
2019-03-13T12:48:16.137Z,61.88
2019-03-13T12:49:07.126Z,61.88
2019-03-13T12:50:07.099Z,67.50
2019-03-13T12:51:07.112Z,61.88
2019-03-13T12:52:07.106Z,56.25
2019-03-13T12:53:10.396Z,56.25
2019-03-13T12:54:07.096Z,67.50
2019-03-13T12:55:07.103Z,67.50
2019-03-13T12:56:07.098Z,67.50
2019-03-13T12:57:07.080Z,67.50
2019-03-13T12:58:07.072Z,73.13
2019-03-13T12:59:07.069Z,73.13
2019-03-13T13:00:07.052Z,73.13
2019-03-13T13:01:07.057Z,73.13
2019-03-13T13:02:07.075Z,73.13
2019-03-13T13:03:07.044Z,73.13
2019-03-13T13:04:07.036Z,73.13
2019-03-13T13:05:07.299Z,73.13
2019-03-13T13:06:07.052Z,73.13
2019-03-13T13:07:07.050Z,73.13
2019-03-13T13:08:07.051Z,73.13
2019-03-13T13:09:07.027Z,78.75
2019-03-13T13:10:07.036Z,73.13
2019-03-13T13:11:08.868Z,78.75
2019-03-13T13:12:07.027Z,78.75